Time;durP1;ratioP1;P1;durP2;ratioP2;P2;SDS_P1;SDS_P2;PMS_P1;PMS_P2;Temp;Humidity;BMP_temperature;BMP_pressure;BME280_temperature;BME280_humidity;BME280_pressure;Samples;Min_cycle;Max_cycle;Signal;HPM_P1;HPM_P2
2023/11/27 00:01:58;;;;;;;0.70;0.25;;;10.10;99.90;;;;;;5027362;28;20045;-67
2023/11/27 00:04:25;;;;;;;0.77;0.40;;;10.10;99.90;;;;;;5005529;28;20508;-66
2023/11/27 00:06:52;;;;;;;1.35;0.40;;;10.10;99.90;;;;;;5025099;28;20068;-68
2023/11/27 00:09:19;;;;;;;1.05;0.90;;;10.10;99.90;;;;;;5026701;28;20347;-67
2023/11/27 00:11:46;;;;;;;1.30;0.95;;;10.10;99.90;;;;;;5009350;28;20053;-66
2023/11/27 00:14:13;;;;;;;1.52;0.90;;;10.10;99.90;;;;;;5023398;28;20053;-67
2023/11/27 00:16:40;;;;;;;2.67;0.80;;;10.10;99.90;;;;;;5026304;28;20049;-66
2023/11/27 00:19:07;;;;;;;1.92;1.35;;;10.10;99.90;;;;;;5009802;28;20037;-66
2023/11/27 00:21:34;;;;;;;2.30;1.10;;;10.10;99.90;;;;;;5026973;28;20046;-67
2023/11/27 00:24:01;;;;;;;2.78;1.23;;;10.10;99.90;;;;;;5027740;28;20041;-67
2023/11/27 00:26:31;;;;;;;2.45;1.20;;;10.10;99.90;;;;;;5025995;28;20061;-67
2023/11/27 00:28:57;;;;;;;2.47;1.67;;;10.10;99.90;;;;;;5026340;28;20037;-67
2023/11/27 00:31:24;;;;;;;3.60;1.38;;;10.10;99.90;;;;;;5028124;28;20115;-66
2023/11/27 00:33:51;;;;;;;1.65;1.50;;;10.10;99.90;;;;;;5020406;28;20068;-67
2023/11/27 00:36:18;;;;;;;3.92;1.50;;;10.10;99.90;;;;;;5027140;28;20053;-66
2023/11/27 00:38:45;;;;;;;7.25;1.60;;;10.10;99.90;;;;;;5025362;28;20038;-67
2023/11/27 00:41:14;;;;;;;4.25;1.50;;;10.10;99.90;;;;;;5023406;28;20079;-66
2023/11/27 00:43:41;;;;;;;5.60;1.83;;;10.00;99.90;;;;;;5026194;28;20092;-67
2023/11/27 00:46:12;;;;;;;4.90;1.42;;;10.00;99.90;;;;;;5027834;28;20057;-67
2023/11/27 00:48:40;;;;;;;5.53;2.13;;;10.00;99.90;;;;;;5026706;28;20060;-66
2023/11/27 00:51:09;;;;;;;7.93;3.17;;;10.00;99.90;;;;;;5027687;28;20133;-67
2023/11/27 00:53:36;;;;;;;6.25;2.15;;;10.10;99.90;;;;;;5024734;28;20519;-67
2023/11/27 00:56:04;;;;;;;6.05;1.67;;;10.00;99.90;;;;;;5023567;28;20654;-68
2023/11/27 00:58:31;;;;;;;4.32;1.58;;;10.00;99.90;;;;;;5007121;28;20173;-66
2023/11/27 01:00:58;;;;;;;4.35;2.22;;;10.00;99.90;;;;;;5027463;28;20041;-67
2023/11/27 01:03:26;;;;;;;5.22;1.60;;;10.00;99.90;;;;;;5025875;28;20072;-66
2023/11/27 01:05:53;;;;;;;9.40;1.95;;;10.00;99.90;;;;;;5027538;28;20068;-66
2023/11/27 01:08:20;;;;;;;3.22;1.52;;;10.00;99.90;;;;;;5026434;28;20057;-66
2023/11/27 01:10:48;;;;;;;3.30;1.40;;;10.00;99.90;;;;;;5010182;28;20052;-66
2023/11/27 01:13:14;;;;;;;6.50;2.10;;;9.90;99.90;;;;;;5027589;28;20049;-67
2023/11/27 01:15:41;;;;;;;5.25;1.75;;;9.90;99.90;;;;;;5027454;28;20038;-66
2023/11/27 01:18:08;;;;;;;5.32;1.38;;;9.90;99.90;;;;;;5027009;28;20084;-65
2023/11/27 01:20:35;;;;;;;6.75;1.98;;;9.90;99.90;;;;;;5027028;28;20501;-66
2023/11/27 01:23:02;;;;;;;8.50;2.10;;;9.90;99.90;;;;;;5033908;28;20053;-67
2023/11/27 01:25:29;;;;;;;9.18;1.50;;;9.90;99.90;;;;;;5031795;28;20068;-67
2023/11/27 01:27:56;;;;;;;5.53;1.40;;;9.90;99.90;;;;;;5028515;28;20050;-66
2023/11/27 01:30:23;;;;;;;6.30;2.00;;;9.90;99.90;;;;;;5032639;28;20233;-66
2023/11/27 01:32:49;;;;;;;5.38;1.40;;;9.90;99.90;;;;;;5033740;28;20099;-67
2023/11/27 01:35:16;;;;;;;6.25;2.35;;;9.90;99.90;;;;;;5032124;28;20139;-67
2023/11/27 01:37:43;;;;;;;5.00;1.38;;;9.90;99.90;;;;;;5032374;28;20492;-67
2023/11/27 01:40:10;;;;;;;5.47;1.42;;;9.90;99.90;;;;;;5012290;28;20038;-67
2023/11/27 01:42:37;;;;;;;8.32;1.00;;;9.90;99.90;;;;;;4680928;28;10000655;-67
2023/11/27 01:45:04;;;;;;;6.97;1.25;;;9.90;99.90;;;;;;5031434;28;20100;-67
2023/11/27 01:47:31;;;;;;;6.10;1.50;;;9.90;99.90;;;;;;5033302;28;20049;-67
2023/11/27 01:49:58;;;;;;;4.03;1.02;;;9.80;99.90;;;;;;5009785;28;20596;-67
2023/11/27 01:52:26;;;;;;;7.85;1.58;;;9.80;99.90;;;;;;5033278;28;20499;-67
2023/11/27 01:54:53;;;;;;;3.95;1.25;;;9.80;99.90;;;;;;5014053;28;20041;-67
2023/11/27 01:57:20;;;;;;;11.52;1.67;;;9.80;99.90;;;;;;5033662;28;20061;-67
2023/11/27 01:59:49;;;;;;;6.47;1.63;;;9.80;99.90;;;;;;5016620;28;20519;-66
2023/11/27 02:02:16;;;;;;;7.55;1.25;;;9.80;99.90;;;;;;5016468;28;20060;-67
2023/11/27 02:04:43;;;;;;;6.38;1.13;;;9.80;99.90;;;;;;5016573;28;20057;-67
2023/11/27 02:07:11;;;;;;;6.65;1.40;;;9.70;99.90;;;;;;5033707;28;20045;-66
2023/11/27 02:09:38;;;;;;;5.35;1.38;;;9.70;99.90;;;;;;5031642;28;20045;-67
2023/11/27 02:12:06;;;;;;;6.50;1.27;;;9.70;99.90;;;;;;5033517;28;20057;-67
2023/11/27 02:14:33;;;;;;;12.90;1.77;;;9.70;99.90;;;;;;5032555;28;20045;-68
2023/11/27 02:17:00;;;;;;;10.00;2.28;;;9.70;99.90;;;;;;5033877;28;20049;-67
2023/11/27 02:19:27;;;;;;;10.25;3.28;;;9.70;99.90;;;;;;5034851;28;20570;-70
2023/11/27 02:21:54;;;;;;;2.33;0.95;;;9.70;99.90;;;;;;5033838;28;20049;-67
2023/11/27 02:24:21;;;;;;;7.57;0.93;;;9.70;99.90;;;;;;5033300;28;20049;-67
2023/11/27 02:26:48;;;;;;;4.43;0.93;;;9.70;99.90;;;;;;5033322;28;20492;-68
2023/11/27 02:29:14;;;;;;;2.67;1.10;;;9.70;99.90;;;;;;5032941;28;20554;-69
2023/11/27 02:31:41;;;;;;;8.68;1.38;;;9.70;99.90;;;;;;5033302;28;20053;-68
2023/11/27 02:34:08;;;;;;;7.95;1.38;;;9.70;99.90;;;;;;5027700;28;20083;-70
2023/11/27 02:36:39;;;;;;;6.72;1.38;;;9.70;99.90;;;;;;5028833;28;20049;-68
2023/11/27 02:39:06;;;;;;;5.43;0.85;;;9.70;99.90;;;;;;5030156;28;20053;-67
2023/11/27 02:41:36;;;;;;;6.72;1.08;;;9.70;99.90;;;;;;5024037;28;20055;-66
2023/11/27 02:44:04;;;;;;;3.95;1.08;;;9.60;99.90;;;;;;5028827;28;20042;-67
2023/11/27 02:46:31;;;;;;;8.95;1.25;;;9.60;99.90;;;;;;5009886;28;20126;-68
2023/11/27 02:48:59;;;;;;;4.90;1.15;;;9.60;99.90;;;;;;5029684;28;20096;-68
2023/11/27 02:51:27;;;;;;;2.45;0.88;;;9.60;99.90;;;;;;5029717;28;20051;-68
2023/11/27 02:53:54;;;;;;;4.93;1.00;;;9.60;99.90;;;;;;5029263;28;20049;-68
2023/11/27 02:56:21;;;;;;;3.60;0.73;;;9.60;99.90;;;;;;5029104;28;20049;-68
2023/11/27 02:58:47;;;;;;;5.95;1.27;;;9.60;99.90;;;;;;5029453;28;20100;-68
2023/11/27 03:01:14;;;;;;;8.15;2.90;;;9.60;99.90;;;;;;5029847;28;20049;-68
2023/11/27 03:03:42;;;;;;;5.55;1.08;;;9.60;99.90;;;;;;5029370;28;20049;-68
2023/11/27 03:06:09;;;;;;;10.45;1.10;;;9.60;99.90;;;;;;5029185;28;20103;-68
2023/11/27 03:08:37;;;;;;;5.43;2.90;;;9.60;99.90;;;;;;5011995;28;20049;-68
2023/11/27 03:11:04;;;;;;;7.70;1.30;;;9.60;99.90;;;;;;5025779;28;20049;-68
2023/11/27 03:13:31;;;;;;;5.97;1.15;;;9.60;99.90;;;;;;5027955;28;20045;-68
2023/11/27 03:15:57;;;;;;;12.30;1.20;;;9.60;99.90;;;;;;5010244;28;20046;-68
2023/11/27 03:18:24;;;;;;;2.28;0.60;;;9.60;99.90;;;;;;5026652;28;20088;-68
2023/11/27 03:20:51;;;;;;;7.05;1.30;;;9.60;99.90;;;;;;5028275;28;20071;-68
2023/11/27 03:23:18;;;;;;;3.65;0.82;;;9.60;99.90;;;;;;5026616;28;20111;-69
2023/11/27 03:25:44;;;;;;;5.05;0.85;;;9.60;99.90;;;;;;5025124;28;20037;-67
2023/11/27 03:28:12;;;;;;;7.65;1.00;;;9.60;99.90;;;;;;5029222;28;20127;-68
2023/11/27 03:30:39;;;;;;;5.28;1.05;;;9.50;99.90;;;;;;5028839;28;20511;-68
2023/11/27 03:33:05;;;;;;;3.60;0.95;;;9.50;99.90;;;;;;5023813;28;20041;-68
2023/11/27 03:35:32;;;;;;;3.83;0.80;;;9.50;99.90;;;;;;5027271;28;20409;-67
2023/11/27 03:37:59;;;;;;;6.18;1.30;;;9.50;99.90;;;;;;5025973;28;20408;-68
2023/11/27 03:40:26;;;;;;;2.83;0.80;;;9.50;99.90;;;;;;5011729;28;20053;-68
2023/11/27 03:42:53;;;;;;;5.07;0.70;;;9.60;99.90;;;;;;5028664;28;20481;-67
2023/11/27 03:45:20;;;;;;;4.82;1.00;;;9.50;99.90;;;;;;5028503;28;20049;-69
2023/11/27 03:47:47;;;;;;;4.75;1.10;;;9.50;99.90;;;;;;5028684;28;20103;-68
2023/11/27 03:50:14;;;;;;;4.32;1.17;;;9.50;99.90;;;;;;5025832;28;20053;-66
2023/11/27 03:52:42;;;;;;;8.27;0.98;;;9.50;99.90;;;;;;5028199;28;20045;-68
2023/11/27 03:55:09;;;;;;;12.40;0.80;;;9.50;99.90;;;;;;5026274;28;20041;-67
2023/11/27 03:57:37;;;;;;;3.33;0.75;;;9.50;99.90;;;;;;5025269;28;20045;-67
2023/11/27 04:00:09;;;;;;;3.42;0.90;;;9.50;99.90;;;;;;5026366;28;20091;-68
2023/11/27 04:02:37;;;;;;;3.60;1.13;;;9.50;99.90;;;;;;5028770;28;20645;-67
2023/11/27 04:05:05;;;;;;;4.97;0.95;;;9.50;99.90;;;;;;5025567;28;20404;-67
2023/11/27 04:07:31;;;;;;;4.35;0.70;;;9.50;99.90;;;;;;5027301;28;20493;-67
2023/11/27 04:09:58;;;;;;;6.20;1.23;;;9.50;99.90;;;;;;5028820;28;20049;-67
2023/11/27 04:12:25;;;;;;;10.45;1.77;;;9.50;99.90;;;;;;5027682;28;20045;-67
2023/11/27 04:14:52;;;;;;;3.17;0.90;;;9.50;99.90;;;;;;5027816;28;20049;-67
2023/11/27 04:17:19;;;;;;;1.90;0.93;;;9.40;99.90;;;;;;5027396;28;20085;-67
2023/11/27 04:19:45;;;;;;;6.53;1.50;;;9.40;99.90;;;;;;5007082;28;20042;-69
2023/11/27 04:22:12;;;;;;;10.27;1.42;;;9.40;99.90;;;;;;5026400;28;20042;-67
2023/11/27 04:24:39;;;;;;;7.80;1.20;;;9.40;99.90;;;;;;5026726;28;20125;-68
2023/11/27 04:27:06;;;;;;;5.95;0.90;;;9.50;99.90;;;;;;5028419;28;20056;-69
2023/11/27 04:29:33;;;;;;;3.90;2.15;;;9.40;99.90;;;;;;5028036;28;20562;-68
2023/11/27 04:32:00;;;;;;;3.30;1.23;;;9.40;99.90;;;;;;5028367;28;20057;-68
2023/11/27 04:34:27;;;;;;;7.22;1.63;;;9.40;99.90;;;;;;5005281;28;20053;-70
2023/11/27 04:36:54;;;;;;;2.97;1.00;;;9.40;99.90;;;;;;5007503;28;20041;-69
2023/11/27 04:39:23;;;;;;;3.42;1.40;;;9.40;99.90;;;;;;5027915;28;20053;-68
2023/11/27 04:41:49;;;;;;;1.88;0.88;;;9.40;99.90;;;;;;5027424;28;20132;-68
2023/11/27 04:44:18;;;;;;;8.75;1.45;;;9.40;99.90;;;;;;5023524;28;20116;-68
2023/11/27 04:46:45;;;;;;;5.60;1.20;;;9.40;99.90;;;;;;5027207;28;20084;-68
2023/11/27 04:49:13;;;;;;;3.95;1.15;;;9.40;99.90;;;;;;5027549;28;20053;-68
2023/11/27 04:51:40;;;;;;;5.28;2.72;;;9.40;99.90;;;;;;5029358;28;20068;-67
2023/11/27 04:54:07;;;;;;;3.70;1.20;;;9.40;99.90;;;;;;5029917;28;20041;-68
2023/11/27 04:56:34;;;;;;;7.10;1.52;;;9.40;99.90;;;;;;5020100;28;20052;-68
2023/11/27 04:59:00;;;;;;;5.75;1.05;;;9.40;99.90;;;;;;5027212;28;20095;-68
2023/11/27 05:01:28;;;;;;;5.57;1.35;;;9.40;99.90;;;;;;5019498;28;20554;-68
2023/11/27 05:03:55;;;;;;;4.32;1.40;;;9.40;99.90;;;;;;5024122;28;20045;-68
2023/11/27 05:06:22;;;;;;;2.60;1.10;;;9.40;99.90;;;;;;5019755;28;20524;-68
2023/11/27 05:08:49;;;;;;;4.18;1.42;;;9.30;99.90;;;;;;5007307;28;20045;-68
2023/11/27 05:11:19;;;;;;;5.57;1.77;;;9.40;99.90;;;;;;5028208;28;20053;-68
2023/11/27 05:13:50;;;;;;;6.50;1.77;;;9.30;99.90;;;;;;5008095;28;20072;-68
2023/11/27 05:16:17;;;;;;;4.28;1.83;;;9.30;99.90;;;;;;5016703;28;20056;-68
2023/11/27 05:18:45;;;;;;;6.53;1.70;;;9.30;99.90;;;;;;5010073;28;20045;-68
2023/11/27 05:21:12;;;;;;;9.68;1.90;;;9.30;99.90;;;;;;5027830;28;20436;-68
2023/11/27 05:23:41;;;;;;;4.07;1.70;;;9.30;99.90;;;;;;5028251;28;20049;-68
2023/11/27 05:26:09;;;;;;;5.10;1.73;;;9.30;99.90;;;;;;5027602;28;20053;-67
2023/11/27 05:28:36;;;;;;;9.75;3.92;;;9.30;99.90;;;;;;5028258;28;20559;-67
2023/11/27 05:31:05;;;;;;;5.05;1.67;;;9.30;99.90;;;;;;5026946;28;20084;-67
2023/11/27 05:33:32;;;;;;;3.88;1.75;;;9.30;99.90;;;;;;5026960;28;20057;-67
2023/11/27 05:36:01;;;;;;;5.15;1.67;;;9.30;99.90;;;;;;5006584;28;20396;-68
2023/11/27 05:38:28;;;;;;;3.50;1.27;;;9.30;99.90;;;;;;5010205;28;20069;-66
2023/11/27 05:40:56;;;;;;;3.63;1.45;;;9.30;99.90;;;;;;4987409;28;20045;-67
2023/11/27 05:43:23;;;;;;;2.17;1.08;;;9.20;99.90;;;;;;5026764;28;20077;-66
2023/11/27 05:45:50;;;;;;;4.25;2.08;;;9.20;99.90;;;;;;5008976;28;20041;-67
2023/11/27 05:48:18;;;;;;;7.45;1.70;;;9.30;99.90;;;;;;5024664;28;20045;-65
2023/11/27 05:50:46;;;;;;;4.40;1.38;;;9.30;99.90;;;;;;5027142;28;20120;-67
2023/11/27 05:53:13;;;;;;;8.40;1.50;;;9.30;99.90;;;;;;5026800;28;20053;-67
2023/11/27 05:55:40;;;;;;;6.40;1.70;;;9.20;99.90;;;;;;5026077;28;20053;-67
2023/11/27 05:58:07;;;;;;;5.63;1.98;;;9.30;99.90;;;;;;5022136;28;20041;-67
2023/11/27 06:00:34;;;;;;;5.40;1.70;;;9.30;99.90;;;;;;5026596;28;20080;-68
2023/11/27 06:03:00;;;;;;;8.68;1.55;;;9.20;99.90;;;;;;5026637;28;20095;-68
2023/11/27 06:05:27;;;;;;;3.17;1.40;;;9.30;99.90;;;;;;5026628;28;20044;-68
2023/11/27 06:07:54;;;;;;;2.67;1.23;;;9.30;99.90;;;;;;5025667;28;20118;-68
2023/11/27 06:10:21;;;;;;;5.07;1.40;;;9.30;99.90;;;;;;5020491;28;20053;-68
2023/11/27 06:12:50;;;;;;;4.03;1.45;;;9.30;99.90;;;;;;5030603;28;20045;-68
2023/11/27 06:15:17;;;;;;;2.72;1.15;;;9.20;99.90;;;;;;5030367;28;20056;-68
2023/11/27 06:17:44;;;;;;;3.85;1.50;;;9.20;99.90;;;;;;5030605;28;20050;-68
2023/11/27 06:20:15;;;;;;;5.07;1.67;;;9.20;99.90;;;;;;5028204;28;20453;-67
2023/11/27 06:22:42;;;;;;;4.90;1.35;;;9.20;99.90;;;;;;5030468;28;20054;-68
2023/11/27 06:25:09;;;;;;;6.20;1.58;;;9.20;99.90;;;;;;5029855;28;20168;-68
2023/11/27 06:27:36;;;;;;;5.88;1.20;;;9.20;99.90;;;;;;5010914;28;20052;-68
2023/11/27 06:30:03;;;;;;;3.25;1.20;;;9.20;99.90;;;;;;5030617;28;20089;-68
2023/11/27 06:32:30;;;;;;;5.68;1.42;;;9.20;99.90;;;;;;5029823;28;20045;-67
2023/11/27 06:34:57;;;;;;;2.25;1.50;;;9.20;99.90;;;;;;5029521;28;20079;-66
2023/11/27 06:37:25;;;;;;;2.53;1.23;;;9.20;99.90;;;;;;5008776;28;20483;-66
2023/11/27 06:39:52;;;;;;;5.18;1.55;;;9.20;99.90;;;;;;5030511;28;20127;-67
2023/11/27 06:42:18;;;;;;;1.55;1.13;;;9.20;99.90;;;;;;5027721;28;20076;-67
2023/11/27 06:44:45;;;;;;;3.63;1.58;;;9.20;99.90;;;;;;5027062;28;20049;-67
2023/11/27 06:47:12;;;;;;;1.85;1.25;;;9.10;99.90;;;;;;5026100;28;20045;-67
2023/11/27 06:49:39;;;;;;;3.03;1.50;;;9.20;99.90;;;;;;5017207;28;20065;-65
2023/11/27 06:52:07;;;;;;;5.07;1.27;;;9.10;99.90;;;;;;5029646;28;20555;-66
2023/11/27 06:54:33;;;;;;;6.15;1.75;;;9.10;99.90;;;;;;5027152;28;20084;-66
2023/11/27 06:57:00;;;;;;;2.90;1.50;;;9.10;99.90;;;;;;5027643;28;20053;-66
2023/11/27 06:59:27;;;;;;;2.97;1.40;;;9.10;99.90;;;;;;5017023;28;20135;-67
2023/11/27 07:01:54;;;;;;;3.67;1.52;;;9.10;99.90;;;;;;5011207;28;20042;-68
2023/11/27 07:07:44;;;;;;;3.22;2.03;;;9.10;99.90;;;;;;5027013;28;20041;-67
2023/11/27 07:10:13;;;;;;;2.45;1.13;;;9.10;99.90;;;;;;5005274;28;20057;-67
2023/11/27 07:12:40;;;;;;;3.60;1.40;;;9.10;99.90;;;;;;5000977;28;20042;-66
2023/11/27 07:15:10;;;;;;;3.65;1.85;;;9.10;99.90;;;;;;5021072;28;20056;-66
2023/11/27 07:17:37;;;;;;;3.50;1.70;;;9.10;99.90;;;;;;5029117;28;20555;-68
2023/11/27 07:20:05;;;;;;;5.13;1.58;;;9.10;99.90;;;;;;5013559;28;20061;-68
2023/11/27 07:22:32;;;;;;;3.47;1.88;;;9.10;99.90;;;;;;5026765;28;20045;-68
2023/11/27 07:24:59;;;;;;;4.45;1.95;;;9.10;99.90;;;;;;5012566;28;20050;-68
2023/11/27 07:27:28;;;;;;;8.50;2.70;;;9.10;99.90;;;;;;5008960;28;20046;-68
2023/11/27 07:29:55;;;;;;;4.45;2.10;;;9.10;99.90;;;;;;5030149;28;20137;-67
2023/11/27 07:32:22;;;;;;;2.80;1.75;;;9.10;99.90;;;;;;5011905;28;20492;-68
2023/11/27 07:34:49;;;;;;;6.22;2.10;;;9.10;99.90;;;;;;5011491;28;20049;-68
2023/11/27 07:37:16;;;;;;;3.25;1.90;;;9.10;99.90;;;;;;5029458;28;20050;-67
2023/11/27 07:39:44;;;;;;;3.17;1.90;;;9.10;99.90;;;;;;5027561;28;20584;-67
2023/11/27 07:42:14;;;;;;;3.22;1.95;;;9.10;99.90;;;;;;5012211;28;20896;-65
2023/11/27 07:44:43;;;;;;;6.07;2.70;;;9.10;99.90;;;;;;5023886;28;20050;-65
2023/11/27 07:47:10;;;;;;;6.13;2.45;;;9.10;99.90;;;;;;5028902;28;20096;-64
2023/11/27 07:49:37;;;;;;;5.80;2.67;;;9.10;99.90;;;;;;5026120;28;20057;-66
2023/11/27 07:52:04;;;;;;;8.93;2.70;;;9.10;99.90;;;;;;5019304;28;20485;-64
2023/11/27 07:54:31;;;;;;;6.65;2.75;;;9.10;99.90;;;;;;5020063;28;20053;-65
2023/11/27 07:56:58;;;;;;;3.65;2.35;;;9.20;99.90;;;;;;5027536;28;20041;-65
2023/11/27 07:59:27;;;;;;;8.95;3.08;;;9.20;99.90;;;;;;5024463;28;20054;-65
2023/11/27 08:01:56;;;;;;;4.72;2.40;;;9.10;99.90;;;;;;5023506;28;20049;-61
2023/11/27 08:04:23;;;;;;;5.97;2.70;;;9.20;99.90;;;;;;5027876;28;20049;-64
2023/11/27 08:06:50;;;;;;;4.45;2.70;;;9.20;99.90;;;;;;5026396;28;20053;-64
2023/11/27 08:09:17;;;;;;;9.43;2.88;;;9.20;99.90;;;;;;5009884;28;20056;-64
2023/11/27 08:11:43;;;;;;;6.75;2.72;;;9.10;99.90;;;;;;5028249;28;20073;-65
2023/11/27 08:14:13;;;;;;;6.93;3.35;;;9.20;99.90;;;;;;5020883;28;20041;-65
2023/11/27 08:16:40;;;;;;;6.38;3.13;;;9.10;99.90;;;;;;5013809;28;20057;-65
2023/11/27 08:19:09;;;;;;;3.85;2.42;;;9.10;99.90;;;;;;5005899;28;20049;-65
2023/11/27 08:21:36;;;;;;;7.45;3.08;;;9.10;99.90;;;;;;5006697;28;20045;-64
2023/11/27 08:24:03;;;;;;;6.18;2.72;;;9.20;99.90;;;;;;5014108;28;20115;-64
2023/11/27 08:26:39;;;;;;;3.70;2.60;;;9.20;99.90;;;;;;5027825;28;20063;-63
2023/11/27 08:29:10;;;;;;;5.07;2.30;;;9.20;99.90;;;;;;5025600;28;20052;-65
2023/11/27 08:31:37;;;;;;;3.70;1.88;;;9.20;99.90;;;;;;5021569;28;20384;-64
2023/11/27 08:34:04;;;;;;;6.10;2.72;;;9.20;99.90;;;;;;5021031;28;20045;-64
2023/11/27 08:36:32;;;;;;;5.20;2.17;;;9.20;99.90;;;;;;5026869;28;20144;-64
2023/11/27 08:39:02;;;;;;;6.07;2.05;;;9.20;99.90;;;;;;5026265;28;20056;-62
2023/11/27 08:41:30;;;;;;;5.10;2.78;;;9.20;99.90;;;;;;5023856;28;20042;-64
2023/11/27 08:43:57;;;;;;;4.13;2.33;;;9.20;99.90;;;;;;5020634;28;20061;-63
2023/11/27 08:46:24;;;;;;;8.68;4.32;;;9.20;99.90;;;;;;5006273;28;20059;-65
2023/11/27 08:48:51;;;;;;;3.67;2.47;;;9.20;99.90;;;;;;5019739;28;20137;-63
2023/11/27 08:51:21;;;;;;;4.00;2.65;;;9.20;99.90;;;;;;5020919;28;20041;-65
2023/11/27 08:53:48;;;;;;;5.65;2.90;;;9.20;99.90;;;;;;5021274;28;20493;-64
2023/11/27 08:56:17;;;;;;;5.40;3.45;;;9.20;99.90;;;;;;5008601;28;20135;-64
2023/11/27 08:58:47;;;;;;;8.70;3.00;;;9.20;99.90;;;;;;4992569;28;20515;-64
2023/11/27 09:01:16;;;;;;;7.82;3.05;;;9.20;99.90;;;;;;4997836;28;20063;-65
2023/11/27 09:03:44;;;;;;;6.30;3.25;;;9.20;99.90;;;;;;5005847;28;20726;-62
2023/11/27 09:06:11;;;;;;;4.85;2.65;;;9.20;99.90;;;;;;5023747;28;20056;-62
2023/11/27 09:08:42;;;;;;;3.65;2.50;;;9.30;99.90;;;;;;5017884;28;20053;-63
2023/11/27 09:11:11;;;;;;;5.75;2.83;;;9.20;99.90;;;;;;5011109;28;20493;-65
2023/11/27 09:13:38;;;;;;;6.28;2.90;;;9.30;99.90;;;;;;5017447;28;20045;-65
2023/11/27 09:16:05;;;;;;;7.20;2.80;;;9.20;99.90;;;;;;5012138;28;20045;-65
2023/11/27 09:18:32;;;;;;;5.75;2.80;;;9.30;99.90;;;;;;5022534;28;20056;-65
2023/11/27 09:20:59;;;;;;;9.02;3.58;;;9.30;99.90;;;;;;5014702;28;20130;-65
2023/11/27 09:23:27;;;;;;;5.20;3.25;;;9.20;99.90;;;;;;5025912;28;20050;-64
2023/11/27 09:25:53;;;;;;;8.48;3.85;;;9.20;99.90;;;;;;5026236;28;20107;-64
2023/11/27 09:28:20;;;;;;;5.85;3.47;;;9.20;99.90;;;;;;5004623;28;20633;-65
2023/11/27 09:30:47;;;;;;;6.32;3.30;;;9.20;99.90;;;;;;5025680;28;20178;-66
2023/11/27 09:33:14;;;;;;;6.95;2.80;;;9.30;99.90;;;;;;5019221;28;20054;-63
2023/11/27 09:35:41;;;;;;;5.63;4.10;;;9.20;99.90;;;;;;5027095;28;20045;-64
2023/11/27 09:38:08;;;;;;;6.43;2.83;;;9.20;99.90;;;;;;5025678;28;20053;-65
2023/11/27 09:40:41;;;;;;;5.38;2.53;;;9.20;99.90;;;;;;5019295;28;20045;-66
2023/11/27 09:43:09;;;;;;;;;;;9.30;99.90;;;;;;5022355;28;20111;-64
2023/11/27 09:45:37;;;;;;;5.00;3.03;;;9.20;99.90;;;;;;5023726;28;19925;-64
2023/11/27 09:48:10;;;;;;;4.20;2.70;;;9.30;99.90;;;;;;5030755;28;20497;-63
2023/11/27 09:50:38;;;;;;;4.50;3.35;;;9.30;99.90;;;;;;5008214;28;20129;-64
2023/11/27 09:53:08;;;;;;;6.95;3.10;;;9.30;99.90;;;;;;5023396;28;20072;-64
2023/11/27 09:55:37;;;;;;;6.63;3.63;;;9.30;99.90;;;;;;5028970;28;20501;-63
2023/11/27 09:58:13;;;;;;;4.40;2.97;;;9.40;99.90;;;;;;5028459;28;20503;-63
2023/11/27 10:00:42;;;;;;;3.72;2.75;;;9.40;99.90;;;;;;5028935;28;20137;-64
2023/11/27 10:03:08;;;;;;;9.63;3.10;;;9.50;99.90;;;;;;5013680;28;20050;-64
2023/11/27 10:05:38;;;;;;;8.05;3.90;;;9.40;99.90;;;;;;5029840;28;20055;-64
2023/11/27 10:08:08;;;;;;;4.38;3.22;;;9.50;99.90;;;;;;5010316;28;20056;-64
2023/11/27 10:10:36;;;;;;;8.80;3.47;;;9.60;99.90;;;;;;5005995;28;20048;-64
2023/11/27 10:13:12;;;;;;;5.78;3.80;;;9.60;99.90;;;;;;5016388;28;20557;-64
2023/11/27 10:15:47;;;;;;;6.93;4.50;;;9.60;99.90;;;;;;5021992;28;20057;-65
2023/11/27 10:18:18;;;;;;;6.82;3.80;;;9.60;99.90;;;;;;5027852;28;20065;-69
2023/11/27 10:20:46;;;;;;;4.60;3.30;;;9.60;99.90;;;;;;5030256;28;20100;-64
2023/11/27 10:23:13;;;;;;;8.07;3.85;;;9.60;99.90;;;;;;5030079;28;20054;-64
2023/11/27 10:25:40;;;;;;;9.40;3.95;;;9.60;99.90;;;;;;5030022;28;20452;-64
2023/11/27 10:28:07;;;;;;;5.70;3.08;;;9.60;99.90;;;;;;5030591;28;20087;-64
2023/11/27 10:30:33;;;;;;;4.68;3.38;;;9.60;99.90;;;;;;5027258;28;20077;-65
2023/11/27 10:33:01;;;;;;;6.65;3.88;;;9.60;99.90;;;;;;5028548;28;20053;-64
2023/11/27 10:35:32;;;;;;;5.10;3.42;;;9.60;99.90;;;;;;5012662;28;20046;-64
2023/11/27 10:37:59;;;;;;;9.20;3.03;;;9.60;99.90;;;;;;5030392;28;20045;-64
2023/11/27 10:40:27;;;;;;;5.47;3.33;;;9.60;99.90;;;;;;5012192;28;20053;-64
2023/11/27 10:42:59;;;;;;;4.68;3.80;;;9.70;99.90;;;;;;5029104;28;20042;-64
2023/11/27 10:45:28;;;;;;;6.77;3.57;;;9.70;99.90;;;;;;5029848;28;20115;-64
2023/11/27 10:47:56;;;;;;;6.78;3.20;;;9.70;99.90;;;;;;5030737;28;20053;-64
2023/11/27 10:50:23;;;;;;;4.95;3.22;;;9.70;99.90;;;;;;5028768;28;20199;-65
2023/11/27 10:52:50;;;;;;;6.00;3.08;;;9.70;99.90;;;;;;5028379;28;20090;-65
2023/11/27 10:55:18;;;;;;;6.38;3.10;;;9.80;99.90;;;;;;4993034;28;20196;-64
2023/11/27 10:57:48;;;;;;;5.05;3.13;;;9.80;99.90;;;;;;5029545;28;20485;-65
2023/11/27 11:00:27;;;;;;;4.63;2.85;;;9.80;99.90;;;;;;5012736;28;20130;-65
2023/11/27 11:02:56;;;;;;;4.57;3.38;;;9.90;99.90;;;;;;5028244;28;20045;-65
2023/11/27 11:05:29;;;;;;;4.05;2.55;;;9.90;99.90;;;;;;5010157;28;20452;-65
2023/11/27 11:07:56;;;;;;;4.60;2.85;;;9.90;99.90;;;;;;5012297;28;20108;-65
2023/11/27 11:10:26;;;;;;;4.57;2.90;;;9.90;99.90;;;;;;5010414;28;20045;-65
2023/11/27 11:12:55;;;;;;;6.55;3.20;;;9.90;99.90;;;;;;5028606;28;20041;-65
2023/11/27 11:15:31;;;;;;;5.10;2.55;;;9.90;99.90;;;;;;5029762;28;20111;-65
2023/11/27 11:18:10;;;;;;;6.05;2.90;;;9.90;99.90;;;;;;4996020;28;20041;-65
2023/11/27 11:21:14;;;;;;;5.22;2.85;;;9.90;99.90;;;;;;5026625;28;20042;-64
2023/11/27 11:23:53;;;;;;;4.45;2.40;;;9.90;99.90;;;;;;5029146;28;20628;-65
2023/11/27 11:26:22;;;;;;;3.83;3.03;;;9.90;99.90;;;;;;5029347;28;20053;-65
2023/11/27 11:29:12;;;;;;;4.38;2.45;;;9.90;99.90;;;;;;5027549;28;20049;-63
2023/11/27 11:31:44;;;;;;;5.00;2.90;;;9.80;99.90;;;;;;5012586;28;20045;-65
2023/11/27 11:34:20;;;;;;;4.82;3.63;;;9.90;99.90;;;;;;5007315;28;20061;-64
2023/11/27 11:36:52;;;;;;;5.93;2.50;;;10.00;99.90;;;;;;5024846;28;20107;-64
2023/11/27 11:39:19;;;;;;;4.88;2.83;;;10.00;99.90;;;;;;5026074;28;20471;-64
2023/11/27 11:42:01;;;;;;;5.57;3.10;;;10.00;99.90;;;;;;5026936;28;20464;-65
2023/11/27 11:44:35;;;;;;;5.00;2.55;;;10.00;99.90;;;;;;5024089;28;20180;-64
2023/11/27 11:47:23;;;;;;;3.67;2.13;;;10.00;99.90;;;;;;5020807;28;20053;-64
2023/11/27 11:49:50;;;;;;;7.32;2.67;;;10.00;99.90;;;;;;5012241;28;20135;-64
2023/11/27 11:52:18;;;;;;;8.10;3.10;;;9.90;99.90;;;;;;5026965;28;20204;-64
2023/11/27 11:54:47;;;;;;;6.82;2.20;;;9.90;99.90;;;;;;5010118;28;20137;-64
2023/11/27 11:57:16;;;;;;;3.97;2.13;;;9.90;99.90;;;;;;5027424;28;20046;-64
2023/11/27 11:59:47;;;;;;;4.55;2.35;;;9.80;99.90;;;;;;5011076;28;20132;-64
2023/11/27 12:02:22;;;;;;;3.75;2.33;;;9.80;99.90;;;;;;5011489;28;20124;-64
2023/11/27 12:04:53;;;;;;;3.55;2.25;;;9.80;99.90;;;;;;5025824;28;20053;-65
2023/11/27 12:07:24;;;;;;;8.43;2.42;;;9.80;99.90;;;;;;5024645;28;20445;-64
2023/11/27 12:09:51;;;;;;;3.72;2.45;;;9.60;99.90;;;;;;5025322;28;20049;-65
2023/11/27 12:12:19;;;;;;;4.85;2.25;;;9.80;99.90;;;;;;5028629;28;20091;-65
2023/11/27 12:14:46;;;;;;;3.65;2.50;;;9.80;99.90;;;;;;5029406;28;20081;-64
2023/11/27 12:17:15;;;;;;;2.67;1.88;;;9.80;99.90;;;;;;5029452;28;20045;-64
2023/11/27 12:19:48;;;;;;;4.75;2.33;;;9.90;99.90;;;;;;5024141;28;20100;-68
2023/11/27 12:22:15;;;;;;;3.35;2.28;;;9.90;99.90;;;;;;5011674;28;20045;-65
2023/11/27 12:24:47;;;;;;;7.90;2.85;;;9.90;99.90;;;;;;5028301;28;20049;-64
2023/11/27 12:27:15;;;;;;;7.00;2.40;;;9.90;99.90;;;;;;5022611;28;20056;-64
2023/11/27 12:29:45;;;;;;;6.03;2.50;;;9.90;99.90;;;;;;5028644;28;20523;-64
2023/11/27 12:32:16;;;;;;;5.47;2.55;;;9.90;99.90;;;;;;5011010;28;20056;-65
2023/11/27 12:34:43;;;;;;;6.80;2.10;;;9.80;99.90;;;;;;5010483;28;20479;-64
2023/11/27 12:37:10;;;;;;;3.47;2.42;;;9.80;99.90;;;;;;5010808;28;20045;-64
2023/11/27 12:39:39;;;;;;;6.75;2.28;;;9.80;99.90;;;;;;5010215;28;20045;-64
2023/11/27 12:42:12;;;;;;;3.58;2.25;;;9.80;99.90;;;;;;5024381;28;20054;-65
2023/11/27 12:44:46;;;;;;;3.83;2.50;;;9.80;99.90;;;;;;5024400;28;20413;-65
2023/11/27 12:47:18;;;;;;;6.75;2.85;;;9.80;99.90;;;;;;5028542;28;20042;-64
2023/11/27 12:49:51;;;;;;;10.20;2.85;;;9.80;99.90;;;;;;5027492;28;20393;-63
2023/11/27 12:52:18;;;;;;;4.22;2.42;;;9.80;99.90;;;;;;5011096;28;20057;-64
2023/11/27 12:54:54;;;;;;;7.97;1.85;;;9.80;99.90;;;;;;5024561;28;20606;-65
2023/11/27 12:57:22;;;;;;;5.68;2.13;;;9.70;99.90;;;;;;5027172;28;20212;-64
2023/11/27 12:59:49;;;;;;;4.60;2.47;;;9.50;99.90;;;;;;5027651;28;20485;-65
2023/11/27 13:02:17;;;;;;;4.70;1.88;;;9.50;99.90;;;;;;5025359;28;20049;-64
2023/11/27 13:04:45;;;;;;;7.65;1.60;;;9.40;99.90;;;;;;5009535;28;20054;-64